createdAt,value
2022-10-05T00:09:37.970Z,11.90
2022-10-05T00:19:46.687Z,13.60
2022-10-05T00:29:58.996Z,13.40
2022-10-05T00:40:13.646Z,15.90
2022-10-05T00:50:29.457Z,14.20
2022-10-05T01:00:38.013Z,15.00
2022-10-05T01:10:53.234Z,19.60
2022-10-05T01:20:58.642Z,17.30
2022-10-05T01:31:14.653Z,17.20
2022-10-05T01:41:23.581Z,16.80
2022-10-05T01:51:28.342Z,18.30
2022-10-05T02:01:33.458Z,17.30
2022-10-05T02:11:45.404Z,16.40
2022-10-05T02:21:57.743Z,17.50
2022-10-05T02:32:09.099Z,15.60
2022-10-05T02:42:13.852Z,16.00
2022-10-05T02:52:23.119Z,15.10
2022-10-05T03:02:34.802Z,18.50
2022-10-05T03:12:51.433Z,16.80
2022-10-05T03:23:01.980Z,21.00
2022-10-05T03:33:16.006Z,21.70
2022-10-05T03:43:33.716Z,21.90
2022-10-05T03:53:43.723Z,22.80
2022-10-05T04:03:51.381Z,19.80
2022-10-05T04:14:00.699Z,22.00
2022-10-05T04:24:14.718Z,19.60
2022-10-05T04:34:22.919Z,19.20
2022-10-05T04:44:34.780Z,21.40
2022-10-05T04:54:43.789Z,20.20
2022-10-05T05:05:10.219Z,19.50
2022-10-05T05:15:19.433Z,20.50
2022-10-05T05:25:29.158Z,17.90
2022-10-05T05:36:09.343Z,15.10
2022-10-05T05:46:18.166Z,16.20
2022-10-05T05:56:33.182Z,15.20
2022-10-05T06:06:44.160Z,14.50
2022-10-05T06:16:55.692Z,14.60
2022-10-05T06:27:21.045Z,11.90
2022-10-05T06:37:29.001Z,9.70
2022-10-05T06:47:35.116Z,10.40
2022-10-05T06:57:44.664Z,8.70
2022-10-05T07:07:56.566Z,5.70
2022-10-05T07:18:05.289Z,6.40
2022-10-05T07:28:14.840Z,7.10
2022-10-05T07:38:19.912Z,4.30
2022-10-05T07:48:33.321Z,4.70
2022-10-05T07:58:44.605Z,4.60
2022-10-05T08:08:54.714Z,4.80
2022-10-05T08:19:06.775Z,4.40
2022-10-05T08:29:16.873Z,3.90
2022-10-05T08:39:22.874Z,4.20
2022-10-05T08:50:04.608Z,3.90
2022-10-05T09:00:13.816Z,3.50
2022-10-05T09:10:47.907Z,3.90
2022-10-05T09:20:56.814Z,2.80
2022-10-05T09:31:17.270Z,3.30
2022-10-05T09:41:53.306Z,2.90
2022-10-05T09:52:17.932Z,3.30
2022-10-05T10:02:29.045Z,3.00
2022-10-05T10:12:51.518Z,2.80
2022-10-05T10:23:16.534Z,2.40
2022-10-05T10:33:37.518Z,3.10
2022-10-05T10:44:11.503Z,2.70
2022-10-05T10:54:42.957Z,2.80
2022-10-05T11:05:02.246Z,2.60
2022-10-05T11:25:51.311Z,2.80
2022-10-05T11:36:33.468Z,2.60
2022-10-05T11:46:39.970Z,3.30
2022-10-05T11:56:49.502Z,2.50
2022-10-05T12:07:05.394Z,3.20
2022-10-05T12:17:12.676Z,2.90
2022-10-05T12:27:21.734Z,3.20
2022-10-05T12:37:39.061Z,3.50
2022-10-05T12:47:49.306Z,2.80
2022-10-05T12:58:01.687Z,4.10
2022-10-05T13:08:18.228Z,3.20
2022-10-05T13:18:30.104Z,3.40
2022-10-05T13:28:40.264Z,3.30
2022-10-05T13:38:48.482Z,3.40
2022-10-05T13:48:58.501Z,3.10
2022-10-05T13:59:12.207Z,4.00
2022-10-05T14:09:35.104Z,3.60
2022-10-05T14:19:45.500Z,3.80
2022-10-05T14:29:55.805Z,3.50
2022-10-05T14:40:04.204Z,3.90
2022-10-05T14:50:17.989Z,4.50
2022-10-05T15:00:24.524Z,4.90
2022-10-05T15:10:29.942Z,6.10
2022-10-05T15:20:35.817Z,6.40
2022-10-05T15:30:47.057Z,5.80
2022-10-05T15:40:52.967Z,5.40
2022-10-05T15:51:00.895Z,6.30
2022-10-05T16:01:13.147Z,5.60
2022-10-05T16:11:22.735Z,6.70
2022-10-05T16:21:29.484Z,8.60
2022-10-05T16:31:34.970Z,6.50
2022-10-05T16:41:42.711Z,5.20
2022-10-05T16:51:50.762Z,7.00
2022-10-05T17:01:56.422Z,7.50
2022-10-05T17:12:13.087Z,6.30
2022-10-05T17:22:22.821Z,5.90
2022-10-05T17:32:36.428Z,5.60
2022-10-05T17:42:47.494Z,7.50
2022-10-05T17:53:12.455Z,7.80
2022-10-05T18:03:36.888Z,6.60
2022-10-05T18:13:44.150Z,5.40
2022-10-05T18:24:01.524Z,8.00
2022-10-05T18:34:18.113Z,8.10
2022-10-05T18:44:31.257Z,10.40
2022-10-05T18:54:40.708Z,6.10
2022-10-05T19:04:50.679Z,6.70
2022-10-05T19:14:55.659Z,7.40
2022-10-05T19:25:16.274Z,6.30
2022-10-05T19:35:22.566Z,6.70
2022-10-05T19:55:36.764Z,6.80
2022-10-05T20:05:44.253Z,6.80
2022-10-05T20:16:40.153Z,5.70
2022-10-05T20:27:03.975Z,4.80
2022-10-05T20:37:11.637Z,5.00
2022-10-05T20:47:19.236Z,4.60
2022-10-05T20:57:26.858Z,6.30
2022-10-05T21:07:35.457Z,5.90
2022-10-05T21:17:41.363Z,5.30
2022-10-05T21:27:47.596Z,5.20
2022-10-05T21:37:55.034Z,5.60
2022-10-05T21:48:02.417Z,5.20
2022-10-05T21:58:10.017Z,4.30
2022-10-05T22:08:20.263Z,4.20
2022-10-05T22:18:27.697Z,5.10
2022-10-05T22:28:35.939Z,5.40
2022-10-05T22:38:43.150Z,4.50
2022-10-05T22:48:50.194Z,3.30
2022-10-05T22:58:57.361Z,3.10
2022-10-05T23:09:04.541Z,4.20
2022-10-05T23:19:11.571Z,3.40
2022-10-05T23:29:18.736Z,3.50
2022-10-05T23:39:25.849Z,3.30
2022-10-05T23:49:32.922Z,3.40
2022-10-05T23:59:40.314Z,3.60
